createdAt,value
2023-02-17T00:01:09.296Z,30.63
2023-02-17T00:03:35.706Z,33.92
2023-02-17T00:06:05.665Z,31.77
2023-02-17T00:08:32.169Z,31.55
2023-02-17T00:10:58.751Z,33.67
2023-02-17T00:13:25.379Z,32.55
2023-02-17T00:15:52.031Z,34.60
2023-02-17T00:18:19.922Z,34.05
2023-02-17T00:20:46.269Z,34.17
2023-02-17T00:23:12.627Z,31.42
2023-02-17T00:25:39.436Z,27.90
2023-02-17T00:28:06.021Z,30.60
2023-02-17T00:30:33.667Z,35.50
2023-02-17T00:33:00.718Z,31.98
2023-02-17T00:35:27.100Z,34.00
2023-02-17T00:37:53.443Z,35.78
2023-02-17T00:40:19.904Z,34.78
2023-02-17T00:42:46.302Z,30.17
2023-02-17T00:45:12.628Z,33.08
2023-02-17T00:47:39.004Z,29.25
2023-02-17T00:50:06.404Z,32.35
2023-02-17T00:52:32.731Z,36.80
2023-02-17T00:54:59.056Z,33.75
2023-02-17T00:57:26.347Z,37.15
2023-02-17T00:59:52.752Z,32.83
2023-02-17T01:02:19.055Z,39.55
2023-02-17T01:04:45.389Z,32.15
2023-02-17T01:07:14.701Z,35.42
2023-02-17T01:09:41.042Z,33.67
2023-02-17T01:12:07.451Z,35.83
2023-02-17T01:14:33.841Z,36.92
2023-02-17T01:17:00.137Z,23.73
2023-02-17T01:19:28.188Z,34.67
2023-02-17T01:21:54.564Z,40.95
2023-02-17T01:24:20.914Z,36.00
2023-02-17T01:26:47.309Z,36.95
2023-02-17T01:29:13.674Z,38.08
2023-02-17T01:31:40.653Z,39.45
2023-02-17T01:34:11.194Z,39.58
2023-02-17T01:36:37.576Z,42.35
2023-02-17T01:39:04.016Z,40.33
2023-02-17T01:41:30.378Z,40.67
2023-02-17T01:44:04.610Z,45.15
2023-02-17T01:46:37.710Z,39.58
2023-02-17T01:49:08.772Z,43.40
2023-02-17T01:51:36.263Z,44.88
2023-02-17T01:54:05.793Z,48.20
2023-02-17T01:56:33.678Z,49.50
2023-02-17T01:59:02.556Z,49.90
2023-02-17T02:01:29.978Z,54.03
2023-02-17T02:03:56.407Z,52.92
2023-02-17T02:06:25.298Z,53.13
2023-02-17T02:08:56.584Z,62.15
2023-02-17T02:11:22.969Z,61.58
2023-02-17T02:13:50.205Z,61.47
2023-02-17T02:16:42.806Z,53.58
2023-02-17T02:19:21.210Z,61.97
2023-02-17T02:22:04.346Z,58.03
2023-02-17T02:24:37.790Z,55.15
2023-02-17T02:27:04.090Z,55.00
2023-02-17T02:29:48.469Z,53.65
2023-02-17T02:32:34.866Z,58.72
2023-02-17T02:35:06.658Z,53.45
2023-02-17T02:37:36.127Z,45.57
2023-02-17T02:40:05.939Z,44.80
2023-02-17T02:42:34.968Z,47.20
2023-02-17T02:45:01.420Z,39.60
2023-02-17T02:47:38.660Z,48.00
2023-02-17T02:50:05.674Z,49.88
2023-02-17T02:52:47.905Z,48.55
2023-02-17T02:55:34.809Z,46.07
2023-02-17T02:58:10.555Z,41.28
2023-02-17T03:00:45.836Z,39.03
2023-02-17T03:03:25.994Z,31.52
2023-02-17T03:05:59.146Z,29.63
2023-02-17T03:08:35.787Z,29.10
2023-02-17T03:11:02.796Z,35.13
2023-02-17T03:13:37.906Z,33.95
2023-02-17T03:16:06.024Z,36.17
2023-02-17T03:18:32.827Z,38.47
2023-02-17T03:21:03.436Z,37.15
2023-02-17T03:23:30.327Z,31.77
2023-02-17T03:25:56.729Z,31.73
2023-02-17T03:28:23.123Z,31.05
2023-02-17T03:30:50.942Z,36.05
2023-02-17T03:33:17.325Z,32.80
2023-02-17T03:35:43.660Z,32.30
2023-02-17T03:38:10.202Z,36.03
2023-02-17T03:40:36.867Z,31.05
2023-02-17T03:43:03.185Z,32.10
2023-02-17T03:45:29.615Z,33.83
2023-02-17T03:47:55.997Z,43.38
2023-02-17T03:50:22.383Z,41.10
2023-02-17T03:52:48.756Z,36.10
2023-02-17T03:55:15.196Z,43.85
2023-02-17T03:57:41.565Z,39.13
2023-02-17T04:00:09.347Z,47.58
2023-02-17T04:02:43.988Z,48.47
2023-02-17T04:05:10.819Z,50.05
2023-02-17T04:07:37.232Z,53.22
2023-02-17T04:10:06.266Z,55.60
2023-02-17T04:12:33.568Z,51.30
2023-02-17T04:14:59.859Z,53.00
2023-02-17T04:17:26.208Z,48.20
2023-02-17T04:19:52.523Z,49.97
2023-02-17T04:22:18.856Z,46.72
2023-02-17T04:24:45.173Z,36.50
2023-02-17T04:27:11.752Z,50.75
2023-02-17T04:29:38.301Z,54.63
2023-02-17T04:32:04.844Z,53.25
2023-02-17T04:34:31.352Z,42.63
2023-02-17T04:36:57.677Z,43.78
2023-02-17T04:39:24.078Z,43.95
2023-02-17T04:41:50.537Z,45.45
2023-02-17T04:44:16.868Z,48.38
2023-02-17T04:46:43.199Z,46.08
2023-02-17T04:49:09.535Z,45.15
2023-02-17T04:51:35.946Z,42.40
2023-02-17T04:54:02.327Z,37.08
2023-02-17T04:56:28.680Z,38.50
2023-02-17T04:58:55.054Z,37.20
2023-02-17T05:01:21.434Z,33.42
2023-02-17T05:03:47.847Z,36.40
2023-02-17T05:06:14.189Z,43.20
2023-02-17T05:08:40.598Z,40.75
2023-02-17T05:11:06.943Z,36.70
2023-02-17T05:13:33.311Z,43.13
2023-02-17T05:16:01.782Z,42.92
2023-02-17T05:18:28.204Z,35.90
2023-02-17T05:20:54.570Z,40.75
2023-02-17T05:23:20.905Z,37.40
2023-02-17T05:25:47.222Z,36.75
2023-02-17T05:28:13.563Z,36.17
2023-02-17T05:30:39.954Z,37.63
2023-02-17T05:33:06.360Z,34.25
2023-02-17T05:35:35.060Z,44.95
2023-02-17T05:38:01.571Z,46.97
2023-02-17T05:40:27.880Z,45.35
2023-02-17T05:42:54.259Z,49.95
2023-02-17T05:45:20.656Z,46.60
2023-02-17T05:47:46.992Z,54.88
2023-02-17T05:50:13.493Z,50.92
2023-02-17T05:52:39.909Z,49.63
2023-02-17T05:55:06.428Z,48.15
2023-02-17T05:57:32.809Z,52.70
2023-02-17T05:59:59.236Z,53.25
2023-02-17T06:02:25.725Z,48.90
2023-02-17T06:04:52.152Z,53.95
2023-02-17T06:07:18.672Z,61.03
2023-02-17T06:09:47.162Z,61.47
2023-02-17T06:12:13.673Z,64.45
2023-02-17T06:14:39.987Z,61.97
2023-02-17T06:17:06.407Z,66.80
2023-02-17T06:19:32.768Z,52.40
2023-02-17T06:21:59.144Z,63.15
2023-02-17T06:24:25.515Z,59.33
2023-02-17T06:26:51.876Z,63.03
2023-02-17T06:29:18.245Z,56.58
2023-02-17T06:31:44.615Z,66.10
2023-02-17T06:34:11.797Z,62.33
2023-02-17T06:36:38.252Z,71.03
2023-02-17T06:39:04.655Z,60.28
2023-02-17T06:41:31.047Z,74.63
2023-02-17T06:43:57.450Z,67.55
2023-02-17T06:46:23.813Z,62.03
2023-02-17T06:48:50.137Z,66.55
2023-02-17T06:51:16.429Z,53.63
2023-02-17T06:53:44.952Z,55.83
2023-02-17T06:56:11.257Z,56.17
2023-02-17T06:58:38.034Z,60.60
2023-02-17T07:01:04.723Z,51.55
2023-02-17T07:03:31.992Z,50.45
2023-02-17T07:05:58.933Z,51.10
2023-02-17T07:08:25.316Z,53.92
2023-02-17T07:10:51.761Z,52.90
2023-02-17T07:13:18.087Z,60.97
2023-02-17T07:15:44.479Z,45.08
2023-02-17T07:18:10.829Z,56.20
2023-02-17T07:20:39.163Z,48.25
2023-02-17T07:23:05.837Z,46.83
2023-02-17T07:25:32.206Z,35.95
2023-02-17T07:27:59.920Z,38.38
2023-02-17T07:30:26.442Z,45.67
2023-02-17T07:32:52.836Z,39.70
2023-02-17T07:35:20.193Z,32.20
2023-02-17T07:37:46.603Z,34.80
2023-02-17T07:40:13.109Z,26.85
2023-02-17T07:42:39.500Z,34.67
2023-02-17T07:45:07.136Z,28.45
2023-02-17T07:47:33.502Z,34.28
2023-02-17T07:49:59.903Z,26.48
2023-02-17T07:52:27.423Z,27.23
2023-02-17T07:54:53.758Z,21.75
2023-02-17T07:57:20.088Z,25.25
2023-02-17T07:59:47.351Z,25.52
2023-02-17T08:02:13.761Z,27.58
2023-02-17T08:04:40.206Z,26.92
2023-02-17T08:07:06.569Z,20.13
2023-02-17T08:09:51.752Z,24.27
2023-02-17T08:12:37.526Z,18.80
2023-02-17T08:15:06.889Z,18.90
2023-02-17T08:17:33.279Z,18.75
2023-02-17T08:20:05.882Z,24.90
2023-02-17T08:22:34.782Z,18.73
2023-02-17T08:25:01.121Z,22.85
2023-02-17T08:27:27.509Z,18.17
2023-02-17T08:29:55.675Z,13.65
2023-02-17T08:32:22.724Z,15.43
2023-02-17T08:34:49.130Z,17.00
2023-02-17T08:37:15.568Z,16.17
2023-02-17T08:39:41.960Z,19.90
2023-02-17T08:42:08.362Z,16.63
2023-02-17T08:44:35.922Z,17.02
2023-02-17T08:47:02.455Z,19.10
2023-02-17T08:49:31.884Z,15.05
2023-02-17T08:51:58.609Z,16.65
2023-02-17T08:54:25.137Z,17.40
2023-02-17T08:56:51.544Z,18.42
2023-02-17T08:59:17.954Z,15.38
2023-02-17T09:01:44.420Z,15.55
2023-02-17T09:04:12.799Z,18.75
2023-02-17T09:06:41.000Z,20.38
2023-02-17T09:09:08.908Z,16.70
2023-02-17T09:11:35.458Z,20.13
2023-02-17T09:14:02.540Z,17.90
2023-02-17T09:16:30.309Z,20.75
2023-02-17T09:18:56.794Z,19.42
2023-02-17T09:21:23.556Z,20.23
2023-02-17T09:23:50.233Z,16.00
2023-02-17T09:26:17.451Z,18.45
2023-02-17T09:28:44.350Z,22.13
2023-02-17T09:31:23.946Z,19.08
2023-02-17T09:33:50.468Z,17.25
2023-02-17T09:36:19.018Z,16.35
2023-02-17T09:38:45.736Z,14.20
2023-02-17T09:41:22.438Z,18.38
2023-02-17T09:43:49.311Z,16.33
2023-02-17T09:46:21.470Z,14.30
2023-02-17T09:48:49.535Z,19.00
2023-02-17T09:51:34.747Z,13.88
2023-02-17T09:54:05.935Z,18.38
2023-02-17T09:56:33.960Z,18.60
2023-02-17T09:59:04.608Z,14.48
2023-02-17T10:01:32.626Z,12.82
2023-02-17T10:04:05.264Z,10.80
2023-02-17T10:09:00.999Z,15.60
2023-02-17T10:11:27.376Z,10.65
2023-02-17T10:13:55.731Z,12.32
2023-02-17T10:16:24.721Z,14.15
2023-02-17T10:18:57.461Z,11.55
2023-02-17T10:21:32.562Z,11.50
2023-02-17T10:23:58.916Z,10.80
2023-02-17T10:26:28.131Z,9.95
2023-02-17T10:28:57.399Z,11.45
2023-02-17T10:31:23.812Z,12.98
2023-02-17T10:33:50.209Z,11.10
2023-02-17T10:36:30.723Z,11.75
2023-02-17T10:39:02.374Z,9.75
2023-02-17T10:41:35.714Z,9.53
2023-02-17T10:44:05.875Z,11.15
2023-02-17T10:46:32.514Z,13.48
2023-02-17T10:48:59.866Z,11.43
2023-02-17T10:51:27.549Z,9.30
2023-02-17T10:54:17.034Z,11.00
2023-02-17T10:56:48.790Z,12.73
2023-02-17T10:59:23.580Z,12.63
2023-02-17T11:01:50.651Z,15.05
2023-02-17T11:04:17.025Z,12.32
2023-02-17T11:06:44.392Z,12.25
2023-02-17T11:09:21.562Z,13.75
2023-02-17T11:11:50.789Z,11.77
2023-02-17T11:14:19.284Z,12.13
2023-02-17T11:16:47.549Z,14.20
2023-02-17T11:19:30.819Z,11.63
2023-02-17T11:21:58.943Z,11.75
2023-02-17T11:24:26.292Z,12.30
2023-02-17T11:27:11.538Z,12.98
2023-02-17T11:29:37.948Z,11.52
2023-02-17T11:32:10.671Z,9.57
2023-02-17T11:34:39.912Z,13.25
2023-02-17T11:37:09.009Z,16.73
2023-02-17T11:39:39.450Z,16.92
2023-02-17T11:42:24.391Z,15.88
2023-02-17T11:44:52.515Z,16.08
2023-02-17T11:47:27.839Z,12.68
2023-02-17T11:50:00.340Z,14.73
2023-02-17T11:52:46.774Z,16.05
2023-02-17T11:55:21.315Z,12.48
2023-02-17T11:57:49.167Z,14.02
2023-02-17T12:00:18.730Z,12.43
2023-02-17T12:03:06.642Z,14.05
2023-02-17T12:05:51.522Z,10.73
2023-02-17T12:08:21.047Z,14.57
2023-02-17T12:11:06.131Z,15.50
2023-02-17T12:13:44.516Z,15.77
2023-02-17T12:16:42.472Z,16.20
2023-02-17T12:19:14.707Z,17.23
2023-02-17T12:21:51.253Z,18.23
2023-02-17T12:24:20.345Z,15.10
2023-02-17T12:26:48.288Z,10.25
2023-02-17T12:29:27.243Z,16.67
2023-02-17T12:31:59.748Z,16.08
2023-02-17T12:36:55.411Z,21.35
2023-02-17T12:39:28.711Z,16.77
2023-02-17T12:41:57.426Z,12.80
2023-02-17T12:44:28.075Z,22.92
2023-02-17T12:46:57.411Z,12.85
2023-02-17T12:49:35.822Z,15.93
2023-02-17T12:52:18.571Z,18.75
2023-02-17T12:54:48.008Z,12.75
2023-02-17T12:57:21.085Z,16.60
2023-02-17T12:59:50.259Z,13.60
2023-02-17T13:02:22.435Z,14.05
2023-02-17T13:04:53.392Z,15.50
2023-02-17T13:07:38.277Z,28.73
2023-02-17T13:10:05.438Z,14.10
2023-02-17T13:12:33.176Z,14.48
2023-02-17T13:15:19.872Z,11.80
2023-02-17T13:17:54.292Z,13.90
2023-02-17T13:20:20.863Z,14.15
2023-02-17T13:22:51.025Z,11.07
2023-02-17T13:25:31.812Z,15.70
2023-02-17T13:27:59.482Z,12.52
2023-02-17T13:30:29.262Z,9.93
2023-02-17T13:33:06.970Z,10.02
2023-02-17T13:35:34.835Z,8.88
2023-02-17T13:38:01.524Z,8.73
2023-02-17T13:40:30.789Z,12.45
2023-02-17T13:42:57.457Z,13.65
2023-02-17T13:45:28.626Z,9.60
2023-02-17T13:47:56.739Z,9.23
2023-02-17T13:50:28.168Z,8.48
2023-02-17T13:52:55.482Z,8.65
2023-02-17T13:55:23.844Z,8.40
2023-02-17T13:57:54.578Z,7.70
2023-02-17T14:00:21.330Z,8.13
2023-02-17T14:02:49.475Z,7.07
2023-02-17T14:05:24.580Z,11.98
2023-02-17T14:07:52.868Z,9.43
2023-02-17T14:10:21.737Z,13.07
2023-02-17T14:12:49.235Z,9.25
2023-02-17T14:15:17.065Z,17.55
2023-02-17T14:17:43.396Z,15.38
2023-02-17T14:20:24.253Z,14.05
2023-02-17T14:23:04.305Z,12.23
2023-02-17T14:25:31.870Z,15.52
2023-02-17T14:27:59.519Z,9.80
2023-02-17T14:30:31.988Z,11.50
2023-02-17T14:35:24.942Z,16.02
2023-02-17T14:37:51.345Z,10.88
2023-02-17T14:40:19.423Z,16.67
2023-02-17T14:42:46.133Z,14.80
2023-02-17T14:45:12.706Z,13.88
2023-02-17T14:47:39.551Z,10.95
2023-02-17T14:50:09.087Z,11.35
2023-02-17T14:52:39.321Z,8.15
2023-02-17T14:55:10.773Z,14.98
2023-02-17T14:57:37.120Z,12.23
2023-02-17T15:00:03.940Z,15.52
2023-02-17T15:02:30.845Z,10.90
2023-02-17T15:04:57.185Z,10.40
2023-02-17T15:07:23.705Z,16.40
2023-02-17T15:09:50.198Z,14.55
2023-02-17T15:12:18.280Z,13.65
2023-02-17T15:14:46.973Z,14.05
2023-02-17T15:17:13.588Z,11.77
2023-02-17T15:19:40.333Z,10.10
2023-02-17T15:22:06.895Z,15.95
2023-02-17T15:24:34.420Z,23.67
2023-02-17T15:27:01.590Z,18.33
2023-02-17T15:29:28.074Z,22.40
2023-02-17T15:31:55.300Z,16.13
2023-02-17T15:34:22.961Z,12.93
2023-02-17T15:36:49.399Z,16.90
2023-02-17T15:39:19.143Z,16.48
2023-02-17T15:41:47.032Z,16.33
2023-02-17T15:44:21.245Z,16.65
2023-02-17T15:46:49.619Z,19.00
2023-02-17T15:49:15.940Z,18.75
2023-02-17T15:51:42.271Z,17.83
2023-02-17T15:54:09.872Z,20.52
2023-02-17T15:56:45.190Z,20.33
2023-02-17T15:59:19.196Z,20.63
2023-02-17T16:01:45.563Z,16.88
2023-02-17T16:04:12.628Z,19.95
2023-02-17T16:06:39.298Z,23.52
2023-02-17T16:09:05.937Z,19.80
2023-02-17T16:11:32.679Z,18.27
2023-02-17T16:14:00.473Z,14.77
2023-02-17T16:16:34.329Z,20.30
2023-02-17T16:19:00.828Z,19.63
2023-02-17T16:21:27.401Z,20.17
2023-02-17T16:23:58.912Z,19.05
2023-02-17T16:26:51.782Z,20.58
2023-02-17T16:29:19.691Z,15.30
2023-02-17T16:31:46.293Z,19.23
2023-02-17T16:34:22.867Z,15.85
2023-02-17T16:36:50.321Z,15.75
2023-02-17T16:39:18.045Z,16.63
2023-02-17T16:41:44.541Z,19.23
2023-02-17T16:44:14.959Z,17.80
2023-02-17T16:46:45.612Z,19.33
2023-02-17T16:49:17.798Z,18.95
2023-02-17T16:51:44.232Z,17.92
2023-02-17T16:54:11.661Z,28.40
2023-02-17T16:56:41.573Z,13.65
2023-02-17T16:59:12.687Z,21.25
2023-02-17T17:01:39.039Z,23.55
2023-02-17T17:04:07.007Z,17.60
2023-02-17T17:06:33.503Z,20.20
2023-02-17T17:08:59.815Z,20.92
2023-02-17T17:11:29.097Z,27.02
2023-02-17T17:13:55.489Z,20.40
2023-02-17T17:16:24.529Z,23.48
2023-02-17T17:18:52.091Z,15.50
2023-02-17T17:21:19.159Z,15.77
2023-02-17T17:23:50.593Z,22.98
2023-02-17T17:26:19.764Z,18.52
2023-02-17T17:28:50.124Z,16.88
2023-02-17T17:31:18.689Z,22.35
2023-02-17T17:33:45.130Z,21.50
2023-02-17T17:36:20.689Z,19.42
2023-02-17T17:38:47.049Z,27.83
2023-02-17T17:41:14.002Z,18.88
2023-02-17T17:43:40.562Z,16.52
2023-02-17T17:46:13.560Z,23.20
2023-02-17T17:48:40.455Z,22.52
2023-02-17T17:51:06.977Z,20.00
2023-02-17T17:53:33.392Z,18.05
2023-02-17T17:55:59.838Z,26.90
2023-02-17T17:58:26.364Z,24.52
2023-02-17T18:00:54.479Z,27.08
2023-02-17T18:03:20.809Z,26.05
2023-02-17T18:05:47.629Z,28.02
2023-02-17T18:08:14.229Z,25.63
2023-02-17T18:10:40.871Z,28.50
2023-02-17T18:13:08.500Z,23.05
2023-02-17T18:15:34.902Z,18.55
2023-02-17T18:18:01.326Z,32.13
2023-02-17T18:20:27.698Z,24.13
2023-02-17T18:22:54.084Z,21.88
2023-02-17T18:25:20.579Z,20.48
2023-02-17T18:27:47.142Z,20.60
2023-02-17T18:30:15.279Z,16.98
2023-02-17T18:32:43.291Z,21.02
2023-02-17T18:35:10.896Z,18.00
2023-02-17T18:37:37.331Z,27.70
2023-02-17T18:40:04.075Z,27.08
2023-02-17T18:42:30.524Z,22.88
2023-02-17T18:44:56.893Z,28.70
2023-02-17T18:47:23.835Z,24.27
2023-02-17T18:49:50.270Z,24.85
2023-02-17T18:52:16.624Z,19.90
2023-02-17T18:54:44.012Z,19.00
2023-02-17T18:57:11.208Z,20.90
2023-02-17T18:59:37.692Z,29.50
2023-02-17T19:02:07.820Z,27.08
2023-02-17T19:04:35.106Z,25.10
2023-02-17T19:07:03.488Z,23.42
2023-02-17T19:09:42.159Z,25.35
2023-02-17T19:12:13.303Z,20.40
2023-02-17T19:14:40.459Z,21.92
2023-02-17T19:17:07.414Z,27.88
2023-02-17T19:19:36.042Z,30.08
2023-02-17T19:22:10.765Z,18.25
2023-02-17T19:24:38.958Z,21.63
2023-02-17T19:27:05.665Z,25.15
2023-02-17T19:29:32.148Z,22.60
2023-02-17T19:31:58.912Z,24.45
2023-02-17T19:34:25.760Z,30.95
2023-02-17T19:36:53.731Z,28.92
2023-02-17T19:39:20.473Z,30.05
2023-02-17T19:41:46.990Z,26.58
2023-02-17T19:44:13.482Z,20.05
2023-02-17T19:46:40.226Z,26.33
2023-02-17T19:49:06.965Z,25.35
2023-02-17T19:51:33.954Z,28.80
2023-02-17T19:54:01.062Z,32.88
2023-02-17T19:56:29.379Z,30.30
2023-02-17T19:58:57.207Z,27.08
2023-02-17T20:01:28.088Z,25.40
2023-02-17T20:03:55.241Z,28.90
2023-02-17T20:06:24.619Z,33.72
2023-02-17T20:08:55.576Z,36.92
2023-02-17T20:11:21.972Z,35.03
2023-02-17T20:13:48.341Z,26.30
2023-02-17T20:16:15.452Z,32.50
2023-02-17T20:18:43.299Z,26.45
2023-02-17T20:21:10.898Z,29.25
2023-02-17T20:23:37.480Z,26.33
2023-02-17T20:26:08.288Z,27.17
2023-02-17T20:28:34.953Z,30.48
2023-02-17T20:31:01.816Z,28.50
2023-02-17T20:33:28.336Z,30.52
2023-02-17T20:35:54.758Z,26.38
2023-02-17T20:38:21.182Z,23.88
2023-02-17T20:40:48.324Z,37.00
2023-02-17T20:43:15.244Z,41.38
2023-02-17T20:45:42.512Z,39.65
2023-02-17T20:48:12.187Z,30.05
2023-02-17T20:50:38.704Z,28.50
2023-02-17T20:53:05.116Z,24.17
2023-02-17T20:55:31.520Z,29.42
2023-02-17T20:57:57.918Z,24.05
2023-02-17T21:00:25.366Z,25.48
2023-02-17T21:02:54.689Z,28.75
2023-02-17T21:05:22.527Z,35.33
2023-02-17T21:07:48.887Z,26.17
2023-02-17T21:10:16.606Z,36.00
2023-02-17T21:12:42.999Z,41.67
2023-02-17T21:15:09.693Z,23.27
2023-02-17T21:17:36.479Z,28.40
2023-02-17T21:20:03.760Z,34.10
2023-02-17T21:22:30.165Z,35.55
2023-02-17T21:24:56.586Z,32.17
2023-02-17T21:27:23.023Z,33.50
2023-02-17T21:29:49.387Z,41.75
2023-02-17T21:32:16.113Z,29.90
2023-02-17T21:34:42.568Z,24.80
2023-02-17T21:37:09.106Z,35.60
2023-02-17T21:39:35.908Z,29.83
2023-02-17T21:42:02.347Z,34.10
2023-02-17T21:44:47.145Z,37.13
2023-02-17T21:47:14.011Z,32.58
2023-02-17T21:49:40.398Z,30.20
2023-02-17T21:52:07.193Z,31.38
2023-02-17T21:54:34.463Z,35.35
2023-02-17T21:57:02.790Z,44.65
2023-02-17T21:59:30.708Z,31.30
2023-02-17T22:01:57.048Z,42.70
2023-02-17T22:04:25.579Z,41.88
2023-02-17T22:06:51.965Z,39.42
2023-02-17T22:09:20.589Z,34.13
2023-02-17T22:11:47.085Z,39.30
2023-02-17T22:14:17.180Z,39.55
2023-02-17T22:16:44.425Z,41.67
2023-02-17T22:19:15.975Z,41.78
2023-02-17T22:21:42.887Z,46.83
2023-02-17T22:24:10.836Z,28.38
2023-02-17T22:26:37.608Z,40.00
2023-02-17T22:29:04.462Z,43.78
2023-02-17T22:31:32.350Z,39.63
2023-02-17T22:34:00.093Z,40.25
2023-02-17T22:36:27.453Z,39.33
2023-02-17T22:38:54.098Z,39.42
2023-02-17T22:41:22.056Z,38.90
2023-02-17T22:43:48.673Z,40.85
2023-02-17T22:46:16.399Z,38.72
2023-02-17T22:48:43.695Z,45.15
2023-02-17T22:51:12.349Z,32.33
2023-02-17T22:53:39.019Z,41.15
2023-02-17T22:56:06.579Z,52.53
2023-02-17T22:58:33.695Z,48.42
2023-02-17T23:01:07.708Z,37.70
2023-02-17T23:03:34.325Z,43.15
2023-02-17T23:06:06.636Z,46.05
2023-02-17T23:08:33.379Z,44.10
2023-02-17T23:11:03.412Z,47.53
2023-02-17T23:13:29.762Z,41.92
2023-02-17T23:15:56.063Z,46.35
2023-02-17T23:18:28.245Z,38.55
2023-02-17T23:20:54.969Z,49.28
2023-02-17T23:23:21.619Z,50.33
2023-02-17T23:25:56.744Z,57.50
2023-02-17T23:28:24.573Z,60.20
2023-02-17T23:30:51.131Z,49.35
2023-02-17T23:33:18.938Z,50.97
2023-02-17T23:35:45.918Z,40.67
2023-02-17T23:38:12.739Z,30.60
2023-02-17T23:40:39.767Z,47.33
2023-02-17T23:43:06.347Z,57.08
2023-02-17T23:45:33.365Z,63.00
2023-02-17T23:48:00.038Z,52.92
2023-02-17T23:50:26.721Z,62.47
2023-02-17T23:52:53.041Z,60.63
2023-02-17T23:55:19.451Z,71.43
2023-02-17T23:57:45.786Z,57.30
